Time;durP1;ratioP1;P1;durP2;ratioP2;P2;SDS_P1;SDS_P2;PMS_P1;PMS_P2;Temp;Humidity;BMP_temperature;BMP_pressure;BME280_temperature;BME280_humidity;BME280_pressure;Samples;Min_cycle;Max_cycle;Signal;HPM_P1;HPM_P2
2021/09/20 00:00:12;;;;;;;0.10;0.10;;;;;;;18.06;55.57;101886.47;4995976;28;20507;-87
2021/09/20 00:02:38;;;;;;;0.10;0.10;;;;;;;18.07;55.67;101877.50;4996678;28;20030;-87
2021/09/20 00:05:07;;;;;;;2.63;0.73;;;;;;;18.02;55.75;101876.78;4995940;28;20132;-87
2021/09/20 00:07:35;;;;;;;0.10;0.10;;;;;;;17.99;54.67;101879.56;4996130;28;20386;-87
2021/09/20 00:10:03;;;;;;;0.10;0.10;;;;;;;18.00;54.88;101878.63;4996139;28;20061;-87
2021/09/20 00:12:30;;;;;;;0.10;0.10;;;;;;;17.95;54.20;101877.91;4995746;28;20501;-87
2021/09/20 00:14:56;;;;;;;0.10;0.10;;;;;;;17.94;54.95;101879.75;4995901;28;20038;-87
2021/09/20 00:17:23;;;;;;;0.20;0.20;;;;;;;17.97;55.01;101877.84;4995885;28;20470;-88
2021/09/20 00:19:49;;;;;;;0.10;0.10;;;;;;;17.90;53.60;101879.84;4995770;28;20049;-87
2021/09/20 00:22:16;;;;;;;0.10;0.10;;;;;;;17.84;54.17;101882.75;4995908;28;20045;-88
2021/09/20 00:24:42;;;;;;;0.20;0.20;;;;;;;17.88;54.44;101881.69;5034820;22;20501;-81
2021/09/20 00:27:10;;;;;;;0.10;0.10;;;;;;;17.84;54.06;101877.38;5035055;28;20040;-82
2021/09/20 00:29:37;;;;;;;0.10;0.10;;;;;;;17.89;54.43;101887.00;5034865;28;20038;-84
2021/09/20 00:32:04;;;;;;;0.10;0.10;;;;;;;17.89;54.67;101886.13;5035071;28;20468;-82
2021/09/20 00:34:31;;;;;;;0.10;0.10;;;;;;;17.90;54.32;101891.44;5021026;28;20144;-82
2021/09/20 00:36:58;;;;;;;0.10;0.10;;;;;;;17.93;54.24;101883.31;5014339;28;20109;-81
2021/09/20 00:39:24;;;;;;;0.00;0.00;;;;;;;17.86;54.69;101887.13;5015033;28;20037;-81
2021/09/20 00:41:50;;;;;;;0.30;0.30;;;;;;;17.92;54.39;101886.06;5015134;28;20080;-82
2021/09/20 00:44:17;;;;;;;0.80;0.38;;;;;;;17.92;54.22;101888.72;5014960;28;20034;-82
2021/09/20 00:46:43;;;;;;;0.10;0.10;;;;;;;17.92;54.49;101894.09;5014874;28;20030;-81
2021/09/20 00:49:10;;;;;;;0.10;0.10;;;;;;;17.92;54.36;101892.28;5014973;28;20436;-81
2021/09/20 00:51:36;;;;;;;0.10;0.10;;;;;;;17.88;53.87;101889.75;5015184;28;20037;-82
2021/09/20 00:54:03;;;;;;;0.10;0.10;;;;;;;17.82;53.55;101895.31;5014594;28;20045;-81
2021/09/20 00:56:31;;;;;;;0.10;0.10;;;;;;;17.87;53.80;101887.97;5014618;28;20026;-81
2021/09/20 00:58:58;;;;;;;0.20;0.20;;;;;;;17.82;54.02;101890.84;5014610;28;20034;-81
2021/09/20 01:01:24;;;;;;;0.10;0.10;;;;;;;17.81;53.91;101888.19;5014741;28;20052;-82
2021/09/20 01:03:51;;;;;;;0.20;0.20;;;;;;;17.77;54.03;101888.31;5014713;28;20549;-81
2021/09/20 01:06:17;;;;;;;0.47;0.47;;;;;;;17.77;53.94;101891.00;5014567;28;20428;-82
2021/09/20 01:08:44;;;;;;;1.98;1.88;;;;;;;17.69;54.09;101885.00;5014437;28;20026;-82
2021/09/20 01:11:11;;;;;;;0.43;0.43;;;;;;;17.61;53.71;101897.78;5013687;28;20053;-87
2021/09/20 01:13:37;;;;;;;0.10;0.10;;;;;;;17.55;53.26;101892.63;5014800;28;20046;-82
2021/09/20 01:16:07;;;;;;;0.25;0.25;;;;;;;17.61;54.09;101898.66;5014501;28;20105;-82
2021/09/20 01:18:34;;;;;;;0.63;0.63;;;;;;;17.59;53.81;101899.63;5014566;28;20022;-82
2021/09/20 01:21:00;;;;;;;0.10;0.10;;;;;;;17.68;53.28;101899.31;5014353;28;20026;-82
2021/09/20 01:23:27;;;;;;;0.30;0.30;;;;;;;17.76;53.44;101894.59;5014107;28;20084;-82
2021/09/20 01:25:53;;;;;;;0.10;0.10;;;;;;;17.77;53.67;101899.03;5013828;28;20034;-81
2021/09/20 01:28:20;;;;;;;0.00;0.00;;;;;;;17.82;53.67;101892.63;5014423;28;20045;-82
2021/09/20 01:30:47;;;;;;;0.10;0.10;;;;;;;17.81;53.60;101890.88;5014100;28;20033;-81
2021/09/20 01:33:13;;;;;;;0.25;0.25;;;;;;;17.78;53.35;101890.06;5013874;28;20029;-82
2021/09/20 01:35:40;;;;;;;0.10;0.10;;;;;;;17.79;53.41;101897.19;5014105;28;20026;-82
2021/09/20 01:38:06;;;;;;;0.10;0.10;;;;;;;17.74;53.77;101896.44;5013923;28;20041;-82
2021/09/20 01:40:33;;;;;;;0.10;0.10;;;;;;;17.78;53.76;101890.06;5013988;28;20397;-81
2021/09/20 01:42:59;;;;;;;0.10;0.10;;;;;;;17.79;53.67;101885.56;5014100;28;20034;-82
2021/09/20 01:45:26;;;;;;;0.55;0.25;;;;;;;17.77;53.28;101888.31;5011560;28;20401;-82
2021/09/20 01:47:53;;;;;;;0.00;0.00;;;;;;;17.68;52.93;101888.59;5013527;28;20381;-81
2021/09/20 01:50:22;;;;;;;0.00;0.00;;;;;;;17.66;52.97;101889.59;5013869;28;20030;-82
2021/09/20 01:52:50;;;;;;;0.10;0.10;;;;;;;17.60;52.95;101896.03;5013550;28;20030;-82
2021/09/20 01:55:17;;;;;;;0.03;0.03;;;;;;;17.59;52.66;101888.91;5014265;28;20026;-81
2021/09/20 01:57:44;;;;;;;0.10;0.10;;;;;;;17.58;53.29;101898.78;5011137;28;20483;-82
2021/09/20 02:00:13;;;;;;;0.10;0.10;;;;;;;17.58;52.88;101900.56;5013668;28;20078;-82
2021/09/20 02:02:40;;;;;;;0.10;0.10;;;;;;;17.60;53.17;101901.41;5013745;28;20057;-81
2021/09/20 02:05:08;;;;;;;1.38;0.73;;;;;;;17.54;53.16;101901.59;5010970;28;20477;-82
2021/09/20 02:07:35;;;;;;;1.33;1.23;;;;;;;17.53;53.16;101906.06;5013760;28;20021;-82
2021/09/20 02:10:04;;;;;;;0.00;0.00;;;;;;;17.45;53.00;101903.63;5013838;28;20041;-82
2021/09/20 02:12:32;;;;;;;0.30;0.30;;;;;;;17.51;52.71;101896.31;5013895;28;20033;-81
2021/09/20 02:14:58;;;;;;;0.10;0.10;;;;;;;17.53;53.21;101908.75;5013537;28;20056;-83
2021/09/20 02:17:25;;;;;;;0.40;0.40;;;;;;;17.57;53.64;101912.19;5013606;28;20109;-82
2021/09/20 02:19:51;;;;;;;0.20;0.20;;;;;;;17.59;53.65;101910.34;5013562;28;20034;-81
2021/09/20 02:22:17;;;;;;;0.10;0.10;;;;;;;17.65;53.38;101915.53;5013767;28;20045;-81
2021/09/20 02:24:44;;;;;;;0.10;0.10;;;;;;;17.68;53.42;101920.75;5013392;28;20044;-82
2021/09/20 02:27:10;;;;;;;0.10;0.10;;;;;;;17.67;53.96;101916.34;5013658;28;20121;-81
2021/09/20 02:29:37;;;;;;;0.25;0.25;;;;;;;17.71;54.26;101925.19;5013661;28;20045;-82
2021/09/20 02:32:04;;;;;;;34.17;1.17;;;;;;;17.71;53.41;101926.03;5013228;28;20033;-82
2021/09/20 02:34:30;;;;;;;0.20;0.20;;;;;;;17.64;54.50;101921.81;5013428;28;20033;-81
2021/09/20 02:36:57;;;;;;;0.10;0.10;;;;;;;17.64;53.47;101921.81;5013221;28;20063;-82
2021/09/20 02:39:23;;;;;;;0.10;0.10;;;;;;;17.63;53.93;101915.56;5017700;28;20064;-88
2021/09/20 02:41:49;;;;;;;0.20;0.20;;;;;;;17.65;53.21;101920.00;5016311;28;20037;-90
2021/09/20 02:44:16;;;;;;;0.70;0.70;;;;;;;17.67;53.69;101927.06;5016831;28;20026;-91
2021/09/20 02:46:43;;;;;;;0.10;0.10;;;;;;;17.65;53.88;101926.25;5017481;28;20032;-90
2021/09/20 02:49:09;;;;;;;1.00;1.00;;;;;;;17.63;53.45;101925.41;5020278;28;20037;-89
2021/09/20 02:51:35;;;;;;;0.10;0.10;;;;;;;17.63;53.26;101928.09;5014662;28;20034;-90
2021/09/20 02:54:02;;;;;;;0.10;0.10;;;;;;;17.63;53.00;101928.09;5013087;28;20042;-91
2021/09/20 02:56:28;;;;;;;0.10;0.10;;;;;;;17.61;53.01;101935.31;5013653;28;20030;-91
2021/09/20 02:58:55;;;;;;;0.10;0.10;;;;;;;17.61;53.61;101936.19;5013523;28;20038;-85
2021/09/20 03:01:21;;;;;;;0.13;0.13;;;;;;;17.60;53.71;101941.59;5016993;28;20050;-90
2021/09/20 03:03:47;;;;;;;0.35;0.35;;;;;;;17.51;53.27;101941.88;5016646;28;20473;-89
2021/09/20 03:06:14;;;;;;;0.10;0.10;;;;;;;17.49;53.72;101949.09;5017484;28;20034;-91
2021/09/20 03:08:40;;;;;;;0.10;0.10;;;;;;;17.44;53.36;101949.22;5015219;28;20125;-89
2021/09/20 03:11:06;;;;;;;0.10;0.10;;;;;;;17.41;53.61;101952.88;5016531;28;20070;-90
2021/09/20 03:13:33;;;;;;;0.10;0.10;;;;;;;17.36;53.19;101957.50;5015304;28;20468;-90
2021/09/20 03:15:59;;;;;;;0.10;0.10;;;;;;;17.36;53.67;101957.50;5015574;28;20473;-91
2021/09/20 03:18:25;;;;;;;0.15;0.15;;;;;;;17.34;53.69;101961.16;5017295;28;20091;-90
2021/09/20 03:20:52;;;;;;;0.45;0.45;;;;;;;17.30;54.00;101960.38;5017004;28;20033;-89
2021/09/20 03:23:18;;;;;;;0.10;0.10;;;;;;;17.26;53.93;101956.06;5017666;28;20106;-89
2021/09/20 03:25:44;;;;;;;0.93;0.63;;;;;;;17.25;53.05;101970.38;5015266;28;20095;-86
2021/09/20 03:28:11;;;;;;;0.10;0.10;;;;;;;17.22;53.68;101959.72;5020964;28;20045;-91
2021/09/20 03:30:37;;;;;;;0.10;0.10;;;;;;;17.21;53.92;101963.31;5030936;28;20018;-85
2021/09/20 03:33:03;;;;;;;5.72;0.63;;;;;;;17.17;53.83;101970.59;5035484;28;20033;-85
2021/09/20 03:35:30;;;;;;;0.10;0.10;;;;;;;17.18;53.92;101974.13;5035485;28;20105;-86
2021/09/20 03:37:56;;;;;;;0.85;0.85;;;;;;;17.19;54.35;101986.63;5034303;28;20034;-85
2021/09/20 03:40:22;;;;;;;0.22;0.22;;;;;;;17.20;54.27;101983.88;5032815;28;20037;-88
2021/09/20 03:42:50;;;;;;;0.90;0.68;;;;;;;17.21;53.80;101982.06;5031712;28;20036;-91
2021/09/20 03:45:17;;;;;;;0.10;0.10;;;;;;;17.20;53.91;101981.19;5017853;28;20084;-89
2021/09/20 03:47:44;;;;;;;0.85;0.85;;;;;;;17.18;53.83;101987.53;5018367;28;20026;-90
2021/09/20 03:50:11;;;;;;;0.10;0.10;;;;;;;17.16;54.29;101987.59;5017986;28;20022;-90
2021/09/20 03:52:39;;;;;;;0.10;0.10;;;;;;;17.17;53.94;101983.09;5017125;28;20036;-91
2021/09/20 03:55:06;;;;;;;0.22;0.22;;;;;;;17.11;53.58;101979.69;5015035;28;20099;-89
2021/09/20 03:57:33;;;;;;;6.32;2.17;;;;;;;17.08;53.45;101986.91;5014163;28;20034;-91
2021/09/20 03:59:59;;;;;;;0.10;0.10;;;;;;;17.02;53.51;101985.28;5017118;28;20053;-89
2021/09/20 04:02:25;;;;;;;0.10;0.10;;;;;;;17.03;53.50;101981.69;5016435;28;20423;-88
2021/09/20 04:04:51;;;;;;;0.10;0.10;;;;;;;16.97;53.81;101985.44;5013843;28;20049;-89
2021/09/20 04:07:17;;;;;;;0.10;0.10;;;;;;;17.02;53.55;101982.59;5015956;28;20034;-93
2021/09/20 04:09:44;;;;;;;0.10;0.10;;;;;;;17.02;53.20;101989.78;5016371;28;20081;-90
2021/09/20 04:12:10;;;;;;;0.10;0.10;;;;;;;17.02;53.65;101985.28;5016012;28;20033;-81
2021/09/20 04:14:37;;;;;;;0.10;0.10;;;;;;;16.99;53.45;101988.06;5015720;28;20057;-89
2021/09/20 04:17:07;;;;;;;0.10;0.10;;;;;;;16.99;53.90;101990.75;5015807;28;20105;-89
2021/09/20 04:19:33;;;;;;;0.10;0.10;;;;;;;16.93;53.32;101996.28;5015948;28;20030;-91
2021/09/20 04:22:00;;;;;;;0.25;0.25;;;;;;;16.80;53.03;101987.69;5015866;28;20037;-92
2021/09/20 04:24:26;;;;;;;0.10;0.10;;;;;;;16.84;53.67;102007.22;5016075;28;20539;-89
2021/09/20 04:26:53;;;;;;;0.10;0.10;;;;;;;16.79;52.86;102016.22;5015582;28;20025;-90
2021/09/20 04:29:19;;;;;;;0.52;0.52;;;;;;;16.79;53.35;102010.88;5014889;28;20065;-91
2021/09/20 04:31:45;;;;;;;0.20;0.20;;;;;;;16.81;53.54;102013.53;5015970;28;20034;-87
2021/09/20 04:34:11;;;;;;;0.10;0.10;;;;;;;16.82;53.59;102010.81;5015563;28;20087;-90
2021/09/20 04:36:39;;;;;;;0.10;0.10;;;;;;;16.78;53.37;102009.13;5016233;28;20026;-90
2021/09/20 04:39:05;;;;;;;0.10;0.10;;;;;;;16.74;53.33;102012.81;5015178;28;20029;-86
2021/09/20 04:41:31;;;;;;;0.10;0.10;;;;;;;16.67;53.47;102011.19;5015592;28;20034;-85
2021/09/20 04:43:57;;;;;;;0.10;0.10;;;;;;;16.61;53.34;102017.63;5013612;28;20395;-81
2021/09/20 04:46:23;;;;;;;0.10;0.10;;;;;;;16.60;53.46;102020.34;5014294;28;20363;-82
2021/09/20 04:48:50;;;;;;;0.10;0.10;;;;;;;16.56;53.23;102029.34;5015337;28;20440;-81
2021/09/20 04:51:16;;;;;;;0.10;0.10;;;;;;;16.55;53.65;102031.16;5015394;28;20153;-82
2021/09/20 04:53:42;;;;;;;0.17;0.17;;;;;;;16.56;53.89;102034.69;5015483;28;20099;-81
2021/09/20 04:56:08;;;;;;;0.10;0.10;;;;;;;16.55;53.75;102038.28;5015143;28;20106;-80
2021/09/20 04:58:34;;;;;;;0.10;0.10;;;;;;;16.54;53.68;102036.56;5014982;28;20105;-81
2021/09/20 05:01:02;;;;;;;0.45;0.45;;;;;;;16.55;54.04;102040.97;5013124;28;20076;-85
2021/09/20 05:03:35;;;;;;;0.10;0.10;;;;;;;16.57;54.40;102036.47;5015451;28;20045;-83
2021/09/20 05:06:02;;;;;;;0.10;0.10;;;;;;;16.58;53.78;102046.25;5014214;28;20026;-82
2021/09/20 05:08:32;;;;;;;0.00;0.00;;;;;;;16.62;54.15;102045.25;5014397;28;20072;-81
2021/09/20 05:10:59;;;;;;;0.10;0.10;;;;;;;16.59;53.09;102056.03;5014627;28;20432;-81
2021/09/20 05:13:25;;;;;;;0.10;0.10;;;;;;;16.59;53.59;102051.56;5014549;28;20038;-83
2021/09/20 05:15:52;;;;;;;0.10;0.10;;;;;;;16.59;53.63;102056.91;5013106;28;20144;-81
2021/09/20 05:18:18;;;;;;;0.10;0.10;;;;;;;16.61;53.57;102067.56;5015019;28;20065;-81
2021/09/20 05:20:44;;;;;;;0.40;0.40;;;;;;;16.63;53.64;102061.25;5014561;28;20030;-84
2021/09/20 05:23:10;;;;;;;0.20;0.20;;;;;;;16.66;53.95;102063.00;5013127;28;20050;-84
2021/09/20 05:25:37;;;;;;;0.73;0.73;;;;;;;16.62;53.99;102058.63;5013269;28;20134;-81
2021/09/20 05:28:03;;;;;;;0.10;0.10;;;;;;;16.56;53.64;102067.69;5012940;28;20069;-81
2021/09/20 05:30:30;;;;;;;0.10;0.10;;;;;;;16.57;54.35;102071.25;5017854;28;20034;-90
2021/09/20 05:33:01;;;;;;;0.10;0.10;;;;;;;16.67;54.20;102062.03;5021783;28;20034;-89
2021/09/20 05:35:28;;;;;;;0.10;0.10;;;;;;;16.68;53.83;102077.19;5013925;28;20054;-82
2021/09/20 05:37:55;;;;;;;0.20;0.20;;;;;;;16.67;54.16;102075.44;5013927;28;20105;-85
2021/09/20 05:40:22;;;;;;;0.10;0.10;;;;;;;16.63;53.83;102084.47;5014104;28;20389;-87
2021/09/20 05:42:49;;;;;;;0.70;0.43;;;;;;;16.62;53.85;102080.03;5013480;28;20065;-87
2021/09/20 05:45:16;;;;;;;0.10;0.10;;;;;;;16.61;54.30;102080.94;5014653;28;20080;-90
2021/09/20 05:47:43;;;;;;;0.10;0.10;;;;;;;16.59;54.16;102080.13;5015311;28;20065;-93
2021/09/20 05:50:10;;;;;;;0.10;0.10;;;;;;;16.55;54.35;102076.63;5013939;28;20069;-90
2021/09/20 05:52:36;;;;;;;0.10;0.10;;;;;;;16.52;54.71;102082.06;5013539;28;20035;-85
2021/09/20 05:55:03;;;;;;;0.17;0.17;;;;;;;16.50;54.26;102084.78;5015000;28;20029;-86
2021/09/20 05:57:29;;;;;;;0.10;0.10;;;;;;;16.49;54.45;102087.50;5012966;28;20072;-85
2021/09/20 05:59:55;;;;;;;0.10;0.10;;;;;;;16.53;54.64;102080.28;5013259;28;20484;-81
2021/09/20 06:02:21;;;;;;;0.10;0.10;;;;;;;16.55;54.57;102091.78;5014323;28;20034;-90
2021/09/20 06:04:47;;;;;;;0.10;0.10;;;;;;;16.56;54.56;102094.44;5012785;28;20041;-86
2021/09/20 06:07:13;;;;;;;0.80;0.80;;;;;;;16.59;54.29;102101.53;5013889;28;20393;-86
2021/09/20 06:09:40;;;;;;;0.28;0.28;;;;;;;16.62;54.01;102090.72;5013921;28;20030;-87
2021/09/20 06:12:06;;;;;;;0.10;0.10;;;;;;;16.68;54.33;102095.91;5013852;28;20480;-86
2021/09/20 06:14:33;;;;;;;0.10;0.10;;;;;;;16.74;54.19;102103.78;5013483;28;20132;-87
2021/09/20 06:16:59;;;;;;;0.10;0.10;;;;;;;16.81;54.11;102109.88;5014058;28;20030;-86
2021/09/20 06:19:25;;;;;;;0.10;0.10;;;;;;;16.84;53.79;102114.28;5013178;28;20125;-88
2021/09/20 06:21:52;;;;;;;0.10;0.10;;;;;;;16.84;54.02;102112.47;5013014;28;20030;-88
2021/09/20 06:24:18;;;;;;;0.10;0.10;;;;;;;16.87;53.66;102112.38;5013814;28;20041;-87
2021/09/20 06:26:44;;;;;;;0.10;0.10;;;;;;;16.89;54.04;102115.03;5013021;28;20370;-87
2021/09/20 06:29:11;;;;;;;0.30;0.30;;;;;;;16.90;54.05;102115.00;5012563;28;20124;-86
2021/09/20 06:31:38;;;;;;;0.25;0.25;;;;;;;16.88;53.83;102122.16;5012468;28;20468;-87
2021/09/20 06:34:05;;;;;;;0.00;0.00;;;;;;;16.91;53.71;102122.13;5012288;28;20061;-87
2021/09/20 06:36:31;;;;;;;0.10;0.10;;;;;;;16.97;53.68;102116.63;5016758;28;20465;-86
2021/09/20 06:38:57;;;;;;;0.10;0.10;;;;;;;16.98;53.31;102122.84;5017694;28;20113;-88
2021/09/20 06:41:25;;;;;;;0.17;0.17;;;;;;;17.01;52.95;102117.41;5017776;28;20109;-88
2021/09/20 06:43:52;;;;;;;0.10;0.10;;;;;;;17.06;53.16;102120.84;5017233;28;20030;-89
2021/09/20 06:46:18;;;;;;;0.10;0.10;;;;;;;17.06;53.33;102123.53;5017367;28;20061;-89
2021/09/20 06:48:44;;;;;;;2.00;0.75;;;;;;;17.07;53.48;102119.94;5017644;28;20030;-87
2021/09/20 06:51:11;;;;;;;0.00;0.00;;;;;;;17.05;53.63;102124.44;5017563;28;20026;-88
2021/09/20 06:53:37;;;;;;;0.10;0.10;;;;;;;17.04;53.25;102120.00;5017156;28;20152;-90
2021/09/20 06:56:03;;;;;;;0.38;0.38;;;;;;;16.93;52.90;102119.41;5017591;28;20034;-89
2021/09/20 06:58:30;;;;;;;0.35;0.35;;;;;;;16.92;53.51;102113.19;5017237;28;20037;-89
2021/09/20 07:00:59;;;;;;;0.13;0.13;;;;;;;16.90;53.44;102120.34;5017104;28;20033;-87
2021/09/20 07:03:25;;;;;;;0.20;0.20;;;;;;;16.87;53.36;102124.88;5017423;28;20132;-87
2021/09/20 07:05:51;;;;;;;0.20;0.20;;;;;;;16.90;54.09;102124.81;5011648;28;20044;-86
2021/09/20 07:08:17;;;;;;;0.10;0.10;;;;;;;16.90;53.44;102123.03;5015010;28;20061;-87
2021/09/20 07:10:43;;;;;;;0.10;0.10;;;;;;;16.89;52.99;102125.75;5015898;28;20053;-86
2021/09/20 07:13:10;;;;;;;0.25;0.25;;;;;;;16.87;52.86;102130.25;5015404;28;20467;-82
2021/09/20 07:15:36;;;;;;;0.20;0.20;;;;;;;16.85;52.69;102138.31;5015308;28;20041;-83
2021/09/20 07:18:04;;;;;;;0.17;0.17;;;;;;;16.81;53.29;102137.53;5015302;28;20037;-82
2021/09/20 07:20:31;;;;;;;0.10;0.10;;;;;;;16.83;53.20;102142.81;5015617;28;20044;-81
2021/09/20 07:22:57;;;;;;;0.10;0.10;;;;;;;16.81;53.45;102142.00;5015356;28;20084;-88
2021/09/20 07:25:23;;;;;;;0.57;0.57;;;;;;;16.84;53.18;102147.25;5013867;28;20473;-83
2021/09/20 07:27:50;;;;;;;0.15;0.15;;;;;;;16.82;52.63;102149.09;5015215;28;20500;-86
2021/09/20 07:30:17;;;;;;;0.10;0.10;;;;;;;16.82;53.16;102143.75;5015325;28;20026;-86
2021/09/20 07:32:48;;;;;;;0.10;0.10;;;;;;;16.81;52.95;102148.22;5015026;28;20087;-85
2021/09/20 07:35:16;;;;;;;0.10;0.10;;;;;;;16.74;51.63;102151.97;5015194;28;20041;-87
2021/09/20 07:37:45;;;;;;;0.10;0.10;;;;;;;16.82;52.89;102152.66;5014909;28;20025;-86
2021/09/20 07:40:13;;;;;;;0.30;0.30;;;;;;;16.87;53.03;102157.00;5015177;28;20050;-87
2021/09/20 07:42:40;;;;;;;0.50;0.50;;;;;;;16.90;52.51;102162.31;5015034;28;20037;-85
2021/09/20 07:45:08;;;;;;;0.10;0.10;;;;;;;16.91;52.63;102170.31;5014586;28;20041;-88
2021/09/20 07:47:34;;;;;;;0.10;0.10;;;;;;;16.93;52.96;102172.94;5015016;28;20033;-85
2021/09/20 07:50:01;;;;;;;0.10;0.10;;;;;;;16.91;52.70;102167.66;5014323;28;20026;-87
2021/09/20 07:52:27;;;;;;;0.10;0.10;;;;;;;16.99;52.29;102172.78;5016005;28;20038;-86
2021/09/20 07:54:53;;;;;;;0.10;0.10;;;;;;;16.93;52.15;102173.81;5015727;28;20065;-89
2021/09/20 07:57:20;;;;;;;0.10;0.10;;;;;;;17.01;51.88;102176.31;5015804;28;20116;-87
2021/09/20 07:59:46;;;;;;;0.20;0.20;;;;;;;17.11;52.53;102176.97;5015512;28;20037;-89
2021/09/20 08:02:12;;;;;;;0.10;0.10;;;;;;;17.18;52.05;102185.72;5015458;28;20034;-86
2021/09/20 08:04:38;;;;;;;0.10;0.10;;;;;;;17.27;52.10;102182.78;5015168;28;20026;-87
2021/09/20 08:07:04;;;;;;;0.65;0.65;;;;;;;17.30;51.86;102188.06;5014663;28;20500;-87
2021/09/20 08:09:30;;;;;;;0.10;0.10;;;;;;;17.35;51.70;102186.13;5013245;28;20046;-88
2021/09/20 08:11:56;;;;;;;0.10;0.10;;;;;;;17.44;51.53;102195.72;5013695;28;20109;-88
2021/09/20 08:14:23;;;;;;;0.10;0.10;;;;;;;17.42;51.18;102177.03;5014622;28;20125;-86
2021/09/20 08:16:49;;;;;;;0.98;0.47;;;;;;;17.51;51.44;102191.97;5014740;28;20149;-87
2021/09/20 08:19:15;;;;;;;0.10;0.10;;;;;;;17.58;51.22;102187.28;5014244;28;20040;-87
2021/09/20 08:21:41;;;;;;;0.32;0.32;;;;;;;17.65;51.04;102190.72;5014649;28;20022;-88
2021/09/20 08:24:08;;;;;;;0.20;0.20;;;;;;;17.71;51.04;102194.06;5014102;28;20104;-87
2021/09/20 08:26:34;;;;;;;0.10;0.10;;;;;;;17.79;49.59;102191.16;5014232;28;20401;-88
2021/09/20 08:29:00;;;;;;;0.10;0.10;;;;;;;17.85;49.20;102196.34;5014406;28;20058;-94
2021/09/20 08:31:27;;;;;;;0.10;0.10;;;;;;;17.86;49.33;102198.13;5013678;28;20484;-87
2021/09/20 08:33:53;;;;;;;0.30;0.30;;;;;;;17.91;49.65;102198.00;5013441;28;20481;-89
2021/09/20 08:36:19;;;;;;;0.30;0.30;;;;;;;17.93;48.56;102201.50;5014279;28;20030;-89
2021/09/20 08:38:46;;;;;;;0.10;0.10;;;;;;;17.98;48.39;102196.94;5014082;28;20048;-87
2021/09/20 08:41:13;;;;;;;0.20;0.20;;;;;;;18.07;48.83;102196.63;5013908;28;20049;-88
2021/09/20 08:43:39;;;;;;;0.68;0.68;;;;;;;18.07;47.31;102195.78;5014330;28;20030;-87
2021/09/20 08:46:07;;;;;;;0.10;0.10;;;;;;;18.12;47.19;102193.84;5014087;28;20484;-89
2021/09/20 08:48:40;;;;;;;0.60;0.60;;;;;;;18.08;47.18;102197.50;5014007;28;20034;-89
2021/09/20 08:51:07;;;;;;;0.47;0.32;;;;;;;18.04;45.50;102211.94;5013655;28;20076;-87
2021/09/20 08:53:33;;;;;;;1.48;1.38;;;;;;;18.14;47.35;102207.19;5013602;28;20392;-88
2021/09/20 08:56:00;;;;;;;0.52;0.45;;;;;;;18.07;45.91;102207.38;5013983;28;20034;-89
2021/09/20 08:58:27;;;;;;;0.15;0.15;;;;;;;18.10;46.26;102212.63;5013100;28;20038;-90
2021/09/20 09:00:53;;;;;;;0.43;0.35;;;;;;;18.10;46.70;102209.94;5013646;28;20088;-86
2021/09/20 09:03:23;;;;;;;0.65;0.65;;;;;;;18.20;45.55;102217.72;5013396;28;20029;-89
2021/09/20 09:05:50;;;;;;;0.82;0.82;;;;;;;18.24;46.50;102214.91;5013608;28;20026;-89
2021/09/20 09:08:18;;;;;;;23.27;0.90;;;;;;;18.31;45.81;102212.06;5013547;28;20029;-89
2021/09/20 09:10:57;;;;;;;0.75;0.45;;;;;;;18.40;46.62;102215.28;5013496;28;20034;-85
2021/09/20 09:13:41;;;;;;;0.20;0.20;;;;;;;18.57;46.15;102224.66;5013347;28;20038;-86
2021/09/20 09:16:27;;;;;;;0.50;0.50;;;;;;;18.66;45.25;102216.28;5013799;28;20038;-89
2021/09/20 09:19:06;;;;;;;0.15;0.15;;;;;;;18.78;45.87;102219.50;5013614;28;20033;-89
2021/09/20 09:21:39;;;;;;;0.10;0.10;;;;;;;18.86;46.50;102220.13;5013628;28;20041;-90
2021/09/20 09:24:11;;;;;;;0.10;0.10;;;;;;;18.94;46.33;102219.91;5013665;28;20500;-86
2021/09/20 09:26:38;;;;;;;0.30;0.30;;;;;;;19.07;45.72;102224.81;5013285;28;20026;-89
2021/09/20 09:29:10;;;;;;;0.40;0.40;;;;;;;19.23;46.16;102216.25;5011999;28;20083;-91
2021/09/20 09:31:38;;;;;;;0.10;0.10;;;;;;;19.35;46.05;102221.19;5013699;28;20030;-90
2021/09/20 09:34:16;;;;;;;0.30;0.30;;;;;;;19.49;44.32;102219.81;5012765;28;20034;-88
2021/09/20 09:36:42;;;;;;;0.10;0.10;;;;;;;19.51;45.60;102217.94;5013191;28;20175;-89
2021/09/20 09:39:09;;;;;;;0.10;0.10;;;;;;;19.61;45.00;102222.06;5013092;28;20047;-91
2021/09/20 09:41:39;;;;;;;3.60;2.58;;;;;;;19.67;45.55;102221.84;5013073;28;20116;-90
2021/09/20 09:44:08;;;;;;;0.10;0.10;;;;;;;19.69;44.48;102228.03;5012776;28;20026;-89
2021/09/20 09:46:46;;;;;;;0.10;0.10;;;;;;;19.69;44.45;102233.44;5013121;28;20041;-90
2021/09/20 09:49:16;;;;;;;0.10;0.10;;;;;;;19.78;43.40;102228.66;5012631;28;20456;-87
2021/09/20 09:54:43;;;;;;;0.30;0.30;;;;;;;19.83;44.91;102232.09;5109934;27;20388;-88
2021/09/20 09:57:19;;;;;;;0.88;0.88;;;;;;;20.01;45.45;102239.47;5110629;28;20055;-88
2021/09/20 10:00:07;;;;;;;0.10;0.10;;;;;;;20.18;44.71;102227.19;5109792;28;20028;-90
2021/09/20 10:02:36;;;;;;;0.10;0.10;;;;;;;20.25;45.00;102220.63;5109844;28;20036;-91
2021/09/20 10:05:06;;;;;;;0.10;0.10;;;;;;;20.38;45.32;102226.41;5109832;28;20059;-88
2021/09/20 10:07:36;;;;;;;0.10;0.10;;;;;;;20.49;45.62;102225.97;5110411;28;20346;-89
2021/09/20 10:10:07;;;;;;;0.20;0.20;;;;;;;20.51;43.46;102224.09;5110096;28;20111;-86
2021/09/20 10:12:35;;;;;;;0.77;0.63;;;;;;;20.67;44.27;102232.44;5109797;28;20067;-89
2021/09/20 10:15:04;;;;;;;0.10;0.10;;;;;;;20.68;43.73;102232.34;5110405;28;20078;-90
2021/09/20 10:17:32;;;;;;;0.10;0.10;;;;;;;20.82;43.79;102230.97;5110743;28;20023;-91
2021/09/20 10:20:00;;;;;;;0.10;0.10;;;;;;;20.88;43.99;102228.00;5109744;28;20040;-89
2021/09/20 10:22:27;;;;;;;0.20;0.20;;;;;;;21.01;43.52;102223.88;5110276;28;20356;-90
2021/09/20 10:24:56;;;;;;;0.10;0.10;;;;;;;21.01;43.12;102217.63;5109988;28;20103;-90
2021/09/20 10:27:23;;;;;;;0.10;0.10;;;;;;;21.09;42.10;102228.06;5111710;28;20027;-88
2021/09/20 10:29:58;;;;;;;0.10;0.10;;;;;;;21.21;42.10;102219.47;5126528;28;20016;-86
2021/09/20 10:32:27;;;;;;;1.75;0.73;;;;;;;21.28;40.67;102234.44;5131022;28;20028;-88
2021/09/20 10:35:33;;;;;;;2.35;1.30;;;;;;;21.32;38.26;102227.94;5131320;28;20020;-89
2021/09/20 10:38:19;;;;;;;0.10;0.10;;;;;;;21.37;40.38;102229.56;5131894;28;20032;-88
2021/09/20 10:41:21;;;;;;;0.30;0.30;;;;;;;21.42;38.96;102232.94;5131368;28;20028;-91
2021/09/20 10:44:09;;;;;;;1.55;1.33;;;;;;;21.44;39.43;102229.22;5131825;28;20440;-88
2021/09/20 10:46:39;;;;;;;0.10;0.10;;;;;;;21.39;40.24;102238.47;5117734;28;20473;-86
2021/09/20 10:49:22;;;;;;;0.20;0.20;;;;;;;21.45;39.65;102233.66;5110058;28;20391;-87
2021/09/20 10:52:09;;;;;;;0.10;0.10;;;;;;;21.58;40.00;102228.66;5110262;28;20394;-85
2021/09/20 10:54:35;;;;;;;0.20;0.20;;;;;;;21.52;39.49;102223.50;5110078;28;20043;-86
2021/09/20 10:57:19;;;;;;;0.43;0.43;;;;;;;21.67;39.63;102232.78;5109283;28;20498;-86
2021/09/20 10:59:45;;;;;;;0.10;0.10;;;;;;;21.58;37.43;102228.66;5109173;28;20513;-84
2021/09/20 11:02:17;;;;;;;0.68;0.68;;;;;;;21.61;39.20;102216.88;5109563;28;20543;-85
2021/09/20 11:04:45;;;;;;;0.10;0.10;;;;;;;21.67;38.34;102231.88;5103238;28;20063;-87
2021/09/20 11:07:15;;;;;;;0.10;0.10;;;;;;;21.72;39.01;102225.34;5095368;28;20035;-85
2021/09/20 11:09:46;;;;;;;0.60;0.60;;;;;;;21.88;37.92;102225.53;5095886;28;20028;-82
2021/09/20 11:12:23;;;;;;;0.50;0.50;;;;;;;21.96;39.05;102227.88;5095513;28;20064;-83
2021/09/20 11:17:45;;;;;;;1.27;0.45;;;;;;;22.14;38.35;102234.22;5089338;27;20458;-80
2021/09/20 11:23:24;;;;;;;0.52;0.52;;;;;;;22.37;40.08;102233.16;5089851;28;20434;-87
2021/09/20 11:26:13;;;;;;;0.10;0.10;;;;;;;22.45;40.14;102235.50;5049496;28;20656;-88
2021/09/20 11:28:43;;;;;;;0.40;0.35;;;;;;;22.47;37.75;102244.41;5049578;28;20036;-83
2021/09/20 11:31:09;;;;;;;0.25;0.25;;;;;;;22.50;37.79;102238.84;5049537;28;20048;-83
2021/09/20 11:36:26;;;;;;;0.68;0.68;;;;;;;22.59;36.63;102238.41;5089484;27;20458;-80
2021/09/20 11:39:10;;;;;;;0.52;0.52;;;;;;;22.81;35.71;102245.44;5069153;28;20033;-83